Warrenton, Indiana
Current Conditions -  °F | °C
As of 10:54 AM on Sunday 21 Dec 2014 (Local Time) from KEVV Reporting Station
Clear Clear  
Wind Chill: 34°   Ceiling: Unl
Heat Index: 38°   Visibility: 8mi
Dew Point: 29°   Wind: 5mph
Humidity: 70%   Direction: 110°ESE
Pressure: 30.25"   Gusts: NA
Location:  38.1827°N, 87.5887°W
Report Text: KEVV 211654Z 11004KT 8SM CLR 03/M02 A3025 RMK AO2 SLP247 T00331017
Loading
Personal Weather Stations






























Interactive Weather Map New forecast layout! Learn more

10-Day Weather Forecast

Advertisements
Track Severe Weather on mobile